sensor_id;sensor_type;location;lat;lon;timestamp;pressure;altitude;pressure_sealevel;temperature;humidity
20860;BME280;10590;48.154;11.514;2023-05-07T00:01:25;95638.81;;;12.43;84.26
20860;BME280;10590;48.154;11.514;2023-05-07T00:06:47;95652.19;;;12.13;85.58
20860;BME280;10590;48.154;11.514;2023-05-07T00:12:09;95651.47;;;12.34;84.94
20860;BME280;10590;48.154;11.514;2023-05-07T00:17:32;95648.28;;;11.82;86.74
20860;BME280;10590;48.154;11.514;2023-05-07T00:22:54;95629.41;;;12.37;84.96
20860;BME280;10590;48.154;11.514;2023-05-07T00:28:16;95641.19;;;11.77;86.88
20860;BME280;10590;48.154;11.514;2023-05-07T00:33:39;95628.56;;;12.24;85.30
20860;BME280;10590;48.154;11.514;2023-05-07T00:39:01;95635.69;;;12.11;85.75
20860;BME280;10590;48.154;11.514;2023-05-07T00:44:24;95628.41;;;12.21;85.10
20860;BME280;10590;48.154;11.514;2023-05-07T00:49:47;95628.94;;;12.35;84.28
20860;BME280;10590;48.154;11.514;2023-05-07T00:55:09;95633.13;;;12.24;84.75
20860;BME280;10590;48.154;11.514;2023-05-07T01:00:32;95633.66;;;12.08;85.44
20860;BME280;10590;48.154;11.514;2023-05-07T01:05:57;95639.53;;;12.31;84.43
20860;BME280;10590;48.154;11.514;2023-05-07T01:11:21;95630.38;;;12.32;85.05
20860;BME280;10590;48.154;11.514;2023-05-07T01:16:43;95631.75;;;12.18;84.84
20860;BME280;10590;48.154;11.514;2023-05-07T01:22:09;95632.28;;;11.64;87.44
20860;BME280;10590;48.154;11.514;2023-05-07T01:27:34;95624.81;;;12.17;85.50
20860;BME280;10590;48.154;11.514;2023-05-07T01:32:58;95626.38;;;11.88;85.90
20860;BME280;10590;48.154;11.514;2023-05-07T01:38:22;95620.63;;;11.69;87.26
20860;BME280;10590;48.154;11.514;2023-05-07T01:43:47;95629.31;;;11.95;86.54
20860;BME280;10590;48.154;11.514;2023-05-07T01:49:09;95614.75;;;12.13;85.66
20860;BME280;10590;48.154;11.514;2023-05-07T01:54:31;95611.00;;;12.15;84.95
20860;BME280;10590;48.154;11.514;2023-05-07T01:59:54;95611.59;;;12.11;84.82
20860;BME280;10590;48.154;11.514;2023-05-07T02:05:16;95612.13;;;12.05;85.54
20860;BME280;10590;48.154;11.514;2023-05-07T02:10:39;95620.16;;;12.05;85.66
20860;BME280;10590;48.154;11.514;2023-05-07T02:16:02;95625.53;;;11.96;85.59
20860;BME280;10590;48.154;11.514;2023-05-07T02:21:24;95621.91;;;12.01;85.30
20860;BME280;10590;48.154;11.514;2023-05-07T02:26:46;95621.50;;;12.20;84.17
20860;BME280;10590;48.154;11.514;2023-05-07T02:32:09;95623.34;;;11.98;85.30
20860;BME280;10590;48.154;11.514;2023-05-07T02:37:31;95623.59;;;11.38;87.29
20860;BME280;10590;48.154;11.514;2023-05-07T02:42:53;95626.97;;;11.94;85.61
20860;BME280;10590;48.154;11.514;2023-05-07T02:48:16;95631.44;;;11.34;87.42
20860;BME280;10590;48.154;11.514;2023-05-07T02:53:38;95625.38;;;11.63;87.26
20860;BME280;10590;48.154;11.514;2023-05-07T02:59:00;95620.84;;;11.93;85.29
20860;BME280;10590;48.154;11.514;2023-05-07T03:04:24;95612.88;;;11.76;85.52
20860;BME280;10590;48.154;11.514;2023-05-07T03:09:46;95619.97;;;11.72;85.79
20860;BME280;10590;48.154;11.514;2023-05-07T03:15:09;95611.97;;;11.72;85.96
20860;BME280;10590;48.154;11.514;2023-05-07T03:20:33;95621.09;;;11.71;86.08
20860;BME280;10590;48.154;11.514;2023-05-07T03:25:56;95619.38;;;11.28;86.97
20860;BME280;10590;48.154;11.514;2023-05-07T03:31:18;95611.06;;;11.12;87.83
20860;BME280;10590;48.154;11.514;2023-05-07T03:36:42;95614.09;;;11.49;87.16
20860;BME280;10590;48.154;11.514;2023-05-07T03:42:04;95621.31;;;11.57;86.05
20860;BME280;10590;48.154;11.514;2023-05-07T03:47:26;95616.81;;;11.40;86.75
20860;BME280;10590;48.154;11.514;2023-05-07T03:52:49;95621.16;;;10.90;89.08
20860;BME280;10590;48.154;11.514;2023-05-07T03:58:11;95613.50;;;11.43;86.88
20860;BME280;10590;48.154;11.514;2023-05-07T04:03:33;95627.00;;;11.47;86.01
20860;BME280;10590;48.154;11.514;2023-05-07T04:08:56;95631.31;;;11.31;86.29
20860;BME280;10590;48.154;11.514;2023-05-07T04:14:18;95629.84;;;11.42;86.18
20860;BME280;10590;48.154;11.514;2023-05-07T04:19:40;95639.25;;;11.48;86.19
20860;BME280;10590;48.154;11.514;2023-05-07T04:25:08;95641.44;;;11.55;85.71
20860;BME280;10590;48.154;11.514;2023-05-07T04:30:30;95652.59;;;11.57;85.49
20860;BME280;10590;48.154;11.514;2023-05-07T04:35:52;95653.34;;;10.93;88.43
20860;BME280;10590;48.154;11.514;2023-05-07T04:41:16;95649.97;;;11.86;85.47
20860;BME280;10590;48.154;11.514;2023-05-07T04:46:38;95651.25;;;12.18;83.64
20860;BME280;10590;48.154;11.514;2023-05-07T04:52:00;95646.69;;;12.39;82.76
20860;BME280;10590;48.154;11.514;2023-05-07T04:57:23;95642.91;;;12.61;81.95
20860;BME280;10590;48.154;11.514;2023-05-07T05:02:45;95651.78;;;12.74;81.34
20860;BME280;10590;48.154;11.514;2023-05-07T05:08:07;95662.63;;;12.77;80.90
20860;BME280;10590;48.154;11.514;2023-05-07T05:13:30;95659.16;;;12.98;80.47
20860;BME280;10590;48.154;11.514;2023-05-07T05:18:52;95653.78;;;12.98;80.51
20860;BME280;10590;48.154;11.514;2023-05-07T05:24:15;95644.28;;;13.54;79.28
20860;BME280;10590;48.154;11.514;2023-05-07T05:29:38;95650.00;;;13.77;78.08
20860;BME280;10590;48.154;11.514;2023-05-07T05:35:00;95646.34;;;14.18;75.53
20860;BME280;10590;48.154;11.514;2023-05-07T05:40:22;95658.06;;;14.26;75.75
20860;BME280;10590;48.154;11.514;2023-05-07T05:45:45;95652.56;;;14.99;71.94
20860;BME280;10590;48.154;11.514;2023-05-07T05:51:07;95657.91;;;16.34;68.60
20860;BME280;10590;48.154;11.514;2023-05-07T05:56:29;95650.63;;;17.89;61.59
20860;BME280;10590;48.154;11.514;2023-05-07T06:01:52;95663.09;;;18.72;57.41
20860;BME280;10590;48.154;11.514;2023-05-07T06:07:14;95657.22;;;20.01;53.96
20860;BME280;10590;48.154;11.514;2023-05-07T06:12:36;95646.81;;;19.29;56.34
20860;BME280;10590;48.154;11.514;2023-05-07T06:17:59;95652.66;;;18.71;58.43
20860;BME280;10590;48.154;11.514;2023-05-07T06:23:21;95661.75;;;20.38;52.91
20860;BME280;10590;48.154;11.514;2023-05-07T06:28:43;95659.03;;;19.90;55.87
20860;BME280;10590;48.154;11.514;2023-05-07T06:34:07;95651.84;;;20.08;53.86
20860;BME280;10590;48.154;11.514;2023-05-07T06:39:29;95665.94;;;19.13;56.50
20860;BME280;10590;48.154;11.514;2023-05-07T06:44:51;95661.84;;;17.48;62.36
20860;BME280;10590;48.154;11.514;2023-05-07T06:50:14;95664.84;;;19.92;52.70
20860;BME280;10590;48.154;11.514;2023-05-07T06:55:37;95664.56;;;20.52;53.00
20860;BME280;10590;48.154;11.514;2023-05-07T07:00:59;95673.44;;;19.60;55.88
20860;BME280;10590;48.154;11.514;2023-05-07T07:06:22;95670.22;;;19.14;55.45
20860;BME280;10590;48.154;11.514;2023-05-07T07:11:45;95666.72;;;19.14;54.66
20860;BME280;10590;48.154;11.514;2023-05-07T07:17:07;95664.31;;;20.20;52.91
20860;BME280;10590;48.154;11.514;2023-05-07T07:22:30;95668.50;;;20.10;52.45
20860;BME280;10590;48.154;11.514;2023-05-07T07:27:52;95666.16;;;20.05;51.60
20860;BME280;10590;48.154;11.514;2023-05-07T07:33:14;95677.78;;;20.09;51.63
20860;BME280;10590;48.154;11.514;2023-05-07T07:38:38;95672.31;;;20.50;48.94
20860;BME280;10590;48.154;11.514;2023-05-07T07:44:00;95681.81;;;21.68;49.20
20860;BME280;10590;48.154;11.514;2023-05-07T07:49:24;95680.66;;;21.69;48.90
20860;BME280;10590;48.154;11.514;2023-05-07T07:54:47;95685.66;;;19.47;52.42
20860;BME280;10590;48.154;11.514;2023-05-07T08:00:10;95680.97;;;21.56;49.15
20860;BME280;10590;48.154;11.514;2023-05-07T08:05:33;95677.22;;;22.46;48.40
20860;BME280;10590;48.154;11.514;2023-05-07T08:10:57;95669.44;;;22.66;45.14
20860;BME280;10590;48.154;11.514;2023-05-07T08:16:19;95680.66;;;23.91;44.02
20860;BME280;10590;48.154;11.514;2023-05-07T08:21:41;95685.38;;;22.57;46.47
20860;BME280;10590;48.154;11.514;2023-05-07T08:27:04;95684.97;;;22.83;45.90
20860;BME280;10590;48.154;11.514;2023-05-07T08:32:26;95688.31;;;24.07;43.09
20860;BME280;10590;48.154;11.514;2023-05-07T08:37:48;95686.94;;;26.14;38.59
20860;BME280;10590;48.154;11.514;2023-05-07T08:43:12;95691.88;;;26.22;38.00
20860;BME280;10590;48.154;11.514;2023-05-07T08:48:35;95685.28;;;27.13;35.97
20860;BME280;10590;48.154;11.514;2023-05-07T08:53:57;95686.88;;;26.87;38.42
20860;BME280;10590;48.154;11.514;2023-05-07T08:59:21;95693.63;;;27.26;35.84
20860;BME280;10590;48.154;11.514;2023-05-07T09:04:43;95694.06;;;26.31;35.98
20860;BME280;10590;48.154;11.514;2023-05-07T09:10:06;95693.41;;;27.17;36.36
20860;BME280;10590;48.154;11.514;2023-05-07T09:15:30;95681.81;;;25.89;36.47
20860;BME280;10590;48.154;11.514;2023-05-07T09:20:51;95684.50;;;27.33;35.42
20860;BME280;10590;48.154;11.514;2023-05-07T09:26:14;95673.28;;;25.83;35.14
20860;BME280;10590;48.154;11.514;2023-05-07T09:31:37;95684.31;;;26.30;34.65
20860;BME280;10590;48.154;11.514;2023-05-07T09:37:01;95674.94;;;27.60;34.36
20860;BME280;10590;48.154;11.514;2023-05-07T09:42:23;95680.97;;;24.00;40.46
20860;BME280;10590;48.154;11.514;2023-05-07T09:47:49;95671.00;;;26.32;35.52
20860;BME280;10590;48.154;11.514;2023-05-07T09:53:15;95658.56;;;26.27;34.79
20860;BME280;10590;48.154;11.514;2023-05-07T09:58:39;95670.75;;;25.69;34.59
20860;BME280;10590;48.154;11.514;2023-05-07T10:04:04;95670.00;;;26.92;33.99
20860;BME280;10590;48.154;11.514;2023-05-07T10:09:29;95672.84;;;25.58;36.03
20860;BME280;10590;48.154;11.514;2023-05-07T10:14:52;95672.19;;;26.31;34.65
20860;BME280;10590;48.154;11.514;2023-05-07T10:20:20;95676.00;;;27.27;31.67
20860;BME280;10590;48.154;11.514;2023-05-07T10:25:42;95668.91;;;25.59;35.01
20860;BME280;10590;48.154;11.514;2023-05-07T10:31:14;95678.13;;;25.72;33.96
20860;BME280;10590;48.154;11.514;2023-05-07T10:36:41;95683.56;;;23.59;37.49
20860;BME280;10590;48.154;11.514;2023-05-07T10:42:08;95684.31;;;26.30;33.72
20860;BME280;10590;48.154;11.514;2023-05-07T10:47:30;95677.69;;;26.54;31.35
20860;BME280;10590;48.154;11.514;2023-05-07T10:53:22;95668.44;;;25.94;32.77
20860;BME280;10590;48.154;11.514;2023-05-07T10:58:48;95680.50;;;25.70;32.68
20860;BME280;10590;48.154;11.514;2023-05-07T11:04:14;95671.06;;;26.75;30.60
20860;BME280;10590;48.154;11.514;2023-05-07T11:09:56;95668.66;;;25.50;31.54
20860;BME280;10590;48.154;11.514;2023-05-07T11:15:36;95670.09;;;25.88;34.38
20860;BME280;10590;48.154;11.514;2023-05-07T11:20:58;95663.78;;;24.59;35.81
20860;BME280;10590;48.154;11.514;2023-05-07T11:26:22;95654.00;;;27.11;31.65
20860;BME280;10590;48.154;11.514;2023-05-07T11:31:48;95660.47;;;26.07;32.49
20860;BME280;10590;48.154;11.514;2023-05-07T11:37:11;95663.22;;;24.37;35.97
20860;BME280;10590;48.154;11.514;2023-05-07T11:42:36;95654.00;;;24.61;35.43
20860;BME280;10590;48.154;11.514;2023-05-07T11:47:58;95654.91;;;24.51;35.71
20860;BME280;10590;48.154;11.514;2023-05-07T11:53:20;95645.38;;;26.22;33.72
20860;BME280;10590;48.154;11.514;2023-05-07T11:58:47;95650.91;;;26.19;32.40
20860;BME280;10590;48.154;11.514;2023-05-07T12:04:10;95657.78;;;25.12;34.28
20860;BME280;10590;48.154;11.514;2023-05-07T12:09:32;95643.47;;;25.35;35.75
20860;BME280;10590;48.154;11.514;2023-05-07T12:14:55;95641.81;;;24.32;36.66
20860;BME280;10590;48.154;11.514;2023-05-07T12:20:17;95637.34;;;26.12;33.11
20860;BME280;10590;48.154;11.514;2023-05-07T12:25:40;95632.59;;;27.98;32.42
20860;BME280;10590;48.154;11.514;2023-05-07T12:31:08;95626.25;;;28.17;30.08
20860;BME280;10590;48.154;11.514;2023-05-07T12:36:36;95623.41;;;26.73;33.02
20860;BME280;10590;48.154;11.514;2023-05-07T12:41:59;95612.53;;;25.72;33.91
20860;BME280;10590;48.154;11.514;2023-05-07T12:47:22;95616.97;;;25.89;33.53
20860;BME280;10590;48.154;11.514;2023-05-07T12:52:45;95613.31;;;25.12;35.81
20860;BME280;10590;48.154;11.514;2023-05-07T12:58:14;95617.06;;;24.53;35.45
20860;BME280;10590;48.154;11.514;2023-05-07T13:03:38;95616.75;;;23.96;36.33
20860;BME280;10590;48.154;11.514;2023-05-07T13:09:00;95616.19;;;25.01;35.32
20860;BME280;10590;48.154;11.514;2023-05-07T13:14:22;95615.47;;;23.52;36.98
20860;BME280;10590;48.154;11.514;2023-05-07T13:19:45;95615.28;;;23.84;35.82
20860;BME280;10590;48.154;11.514;2023-05-07T13:25:08;95617.03;;;24.08;36.00
20860;BME280;10590;48.154;11.514;2023-05-07T13:30:30;95623.22;;;25.59;31.92
20860;BME280;10590;48.154;11.514;2023-05-07T13:35:53;95621.44;;;25.19;31.65
20860;BME280;10590;48.154;11.514;2023-05-07T13:41:17;95623.38;;;24.84;33.02
20860;BME280;10590;48.154;11.514;2023-05-07T13:46:39;95616.25;;;25.28;32.76
20860;BME280;10590;48.154;11.514;2023-05-07T13:52:03;95620.09;;;24.62;33.31
20860;BME280;10590;48.154;11.514;2023-05-07T13:57:25;95621.97;;;23.76;34.56
20860;BME280;10590;48.154;11.514;2023-05-07T14:02:46;95617.13;;;24.46;35.10
20860;BME280;10590;48.154;11.514;2023-05-07T14:08:10;95617.31;;;23.73;35.17
20860;BME280;10590;48.154;11.514;2023-05-07T14:13:34;95624.00;;;23.61;36.48
20860;BME280;10590;48.154;11.514;2023-05-07T14:18:56;95621.06;;;23.20;36.62
20860;BME280;10590;48.154;11.514;2023-05-07T14:24:19;95616.56;;;22.88;37.58
20860;BME280;10590;48.154;11.514;2023-05-07T14:29:41;95616.97;;;22.73;38.05
20860;BME280;10590;48.154;11.514;2023-05-07T14:35:04;95615.81;;;22.70;38.36
20860;BME280;10590;48.154;11.514;2023-05-07T14:40:27;95612.31;;;22.66;38.38
20860;BME280;10590;48.154;11.514;2023-05-07T14:45:49;95614.25;;;22.66;39.21
20860;BME280;10590;48.154;11.514;2023-05-07T14:51:11;95619.53;;;23.19;39.09
20860;BME280;10590;48.154;11.514;2023-05-07T14:56:36;95608.47;;;22.32;40.56
20860;BME280;10590;48.154;11.514;2023-05-07T15:01:58;95610.03;;;22.01;41.55
20860;BME280;10590;48.154;11.514;2023-05-07T15:07:20;95617.41;;;21.68;43.33
20860;BME280;10590;48.154;11.514;2023-05-07T15:12:43;95613.84;;;21.39;44.44
20860;BME280;10590;48.154;11.514;2023-05-07T15:18:05;95613.47;;;21.44;43.48
20860;BME280;10590;48.154;11.514;2023-05-07T15:23:27;95605.59;;;21.11;45.12
20860;BME280;10590;48.154;11.514;2023-05-07T15:28:50;95608.81;;;21.48;44.43
20860;BME280;10590;48.154;11.514;2023-05-07T15:34:12;95612.13;;;20.95;45.41
20860;BME280;10590;48.154;11.514;2023-05-07T15:39:35;95615.25;;;20.97;45.89
20860;BME280;10590;48.154;11.514;2023-05-07T15:44:58;95611.19;;;20.63;45.74
20860;BME280;10590;48.154;11.514;2023-05-07T15:50:21;95611.94;;;20.60;46.00
20860;BME280;10590;48.154;11.514;2023-05-07T15:55:43;95610.75;;;20.50;46.23
20860;BME280;10590;48.154;11.514;2023-05-07T16:01:07;95602.19;;;20.45;45.60
20860;BME280;10590;48.154;11.514;2023-05-07T16:06:30;95605.59;;;20.38;45.61
20860;BME280;10590;48.154;11.514;2023-05-07T16:11:52;95598.22;;;20.31;45.63
20860;BME280;10590;48.154;11.514;2023-05-07T16:17:15;95595.69;;;20.01;45.26
20860;BME280;10590;48.154;11.514;2023-05-07T16:22:37;95596.91;;;20.11;43.81
20860;BME280;10590;48.154;11.514;2023-05-07T16:27:59;95596.47;;;20.02;44.85
20860;BME280;10590;48.154;11.514;2023-05-07T16:33:25;95594.97;;;20.08;44.76
20860;BME280;10590;48.154;11.514;2023-05-07T16:38:46;95604.53;;;19.95;45.16
20860;BME280;10590;48.154;11.514;2023-05-07T16:44:08;95602.50;;;19.85;45.24
20860;BME280;10590;48.154;11.514;2023-05-07T16:49:32;95597.66;;;20.08;45.20
20860;BME280;10590;48.154;11.514;2023-05-07T16:54:54;95607.06;;;19.73;45.81
20860;BME280;10590;48.154;11.514;2023-05-07T17:00:20;95597.25;;;19.58;46.04
20860;BME280;10590;48.154;11.514;2023-05-07T17:05:43;95603.06;;;19.60;46.29
20860;BME280;10590;48.154;11.514;2023-05-07T17:11:05;95608.06;;;19.58;46.08
20860;BME280;10590;48.154;11.514;2023-05-07T17:16:27;95617.81;;;19.66;46.48
20860;BME280;10590;48.154;11.514;2023-05-07T17:21:50;95629.03;;;19.65;46.89
20860;BME280;10590;48.154;11.514;2023-05-07T17:27:12;95633.56;;;19.54;47.38
20860;BME280;10590;48.154;11.514;2023-05-07T17:32:35;95637.72;;;19.48;47.06
20860;BME280;10590;48.154;11.514;2023-05-07T17:37:59;95650.03;;;19.41;47.22
20860;BME280;10590;48.154;11.514;2023-05-07T17:43:23;95645.53;;;19.19;48.09
20860;BME280;10590;48.154;11.514;2023-05-07T17:48:44;95650.53;;;19.17;48.13
20860;BME280;10590;48.154;11.514;2023-05-07T17:54:08;95656.94;;;19.05;49.00
20860;BME280;10590;48.154;11.514;2023-05-07T17:59:30;95660.63;;;18.90;49.56
20860;BME280;10590;48.154;11.514;2023-05-07T18:04:52;95667.59;;;18.91;50.08
20860;BME280;10590;48.154;11.514;2023-05-07T18:10:16;95674.38;;;18.78;50.02
20860;BME280;10590;48.154;11.514;2023-05-07T18:15:38;95670.09;;;18.77;50.42
20860;BME280;10590;48.154;11.514;2023-05-07T18:21:01;95683.34;;;18.86;50.14
20860;BME280;10590;48.154;11.514;2023-05-07T18:26:24;95687.16;;;18.81;50.23
20860;BME280;10590;48.154;11.514;2023-05-07T18:31:46;95682.25;;;18.90;50.93
20860;BME280;10590;48.154;11.514;2023-05-07T18:37:08;95693.09;;;18.64;51.91
20860;BME280;10590;48.154;11.514;2023-05-07T18:42:32;95692.38;;;18.67;51.16
20860;BME280;10590;48.154;11.514;2023-05-07T18:47:53;95702.88;;;18.72;51.04
20860;BME280;10590;48.154;11.514;2023-05-07T18:53:15;95703.97;;;18.67;50.98
20860;BME280;10590;48.154;11.514;2023-05-07T18:58:39;95703.50;;;18.62;51.72
20860;BME280;10590;48.154;11.514;2023-05-07T19:04:01;95703.69;;;18.50;51.83
20860;BME280;10590;48.154;11.514;2023-05-07T19:09:22;95714.91;;;18.52;52.72
20860;BME280;10590;48.154;11.514;2023-05-07T19:14:46;95721.88;;;18.53;52.78
20860;BME280;10590;48.154;11.514;2023-05-07T19:20:09;95732.88;;;18.40;53.72
20860;BME280;10590;48.154;11.514;2023-05-07T19:25:31;95729.13;;;18.49;53.87
20860;BME280;10590;48.154;11.514;2023-05-07T19:30:54;95741.59;;;18.30;55.23
20860;BME280;10590;48.154;11.514;2023-05-07T19:36:16;95745.94;;;17.93;57.60
20860;BME280;10590;48.154;11.514;2023-05-07T19:41:38;95757.72;;;18.04;58.21
20860;BME280;10590;48.154;11.514;2023-05-07T19:47:02;95764.00;;;18.11;58.89
20860;BME280;10590;48.154;11.514;2023-05-07T19:52:25;95764.16;;;17.76;62.17
20860;BME280;10590;48.154;11.514;2023-05-07T19:57:47;95771.19;;;17.62;62.90
20860;BME280;10590;48.154;11.514;2023-05-07T20:03:11;95778.72;;;17.52;63.65
20860;BME280;10590;48.154;11.514;2023-05-07T20:08:38;95786.03;;;17.52;63.68
20860;BME280;10590;48.154;11.514;2023-05-07T20:14:00;95791.66;;;17.28;64.64
20860;BME280;10590;48.154;11.514;2023-05-07T20:19:25;95791.94;;;17.23;64.97
20860;BME280;10590;48.154;11.514;2023-05-07T20:24:48;95792.44;;;17.28;64.72
20860;BME280;10590;48.154;11.514;2023-05-07T20:30:11;95798.47;;;17.22;65.03
20860;BME280;10590;48.154;11.514;2023-05-07T20:35:35;95799.75;;;17.28;64.89
20860;BME280;10590;48.154;11.514;2023-05-07T20:40:56;95805.19;;;17.12;65.14
20860;BME280;10590;48.154;11.514;2023-05-07T20:46:19;95815.31;;;16.99;65.68
20860;BME280;10590;48.154;11.514;2023-05-07T20:51:43;95810.56;;;16.77;66.38
20860;BME280;10590;48.154;11.514;2023-05-07T20:57:06;95803.25;;;16.62;66.70
20860;BME280;10590;48.154;11.514;2023-05-07T21:02:28;95814.31;;;16.56;67.12
20860;BME280;10590;48.154;11.514;2023-05-07T21:07:51;95830.13;;;16.58;67.11
20860;BME280;10590;48.154;11.514;2023-05-07T21:13:13;95835.25;;;16.47;67.52
20860;BME280;10590;48.154;11.514;2023-05-07T21:18:36;95832.09;;;16.45;67.46
20860;BME280;10590;48.154;11.514;2023-05-07T21:23:59;95839.28;;;16.25;68.24
20860;BME280;10590;48.154;11.514;2023-05-07T21:29:22;95842.50;;;16.31;67.86
20860;BME280;10590;48.154;11.514;2023-05-07T21:34:44;95852.31;;;16.39;67.62
20860;BME280;10590;48.154;11.514;2023-05-07T21:40:09;95848.06;;;16.38;67.32
20860;BME280;10590;48.154;11.514;2023-05-07T21:45:31;95852.84;;;16.29;68.11
20860;BME280;10590;48.154;11.514;2023-05-07T21:51:00;95865.16;;;16.30;67.68
20860;BME280;10590;48.154;11.514;2023-05-07T21:56:24;95869.50;;;16.19;68.15
20860;BME280;10590;48.154;11.514;2023-05-07T22:01:46;95875.31;;;16.21;67.98
20860;BME280;10590;48.154;11.514;2023-05-07T22:07:07;95874.88;;;16.19;67.97
20860;BME280;10590;48.154;11.514;2023-05-07T22:12:31;95874.25;;;15.82;69.16
20860;BME280;10590;48.154;11.514;2023-05-07T22:17:53;95880.41;;;16.10;67.88
20860;BME280;10590;48.154;11.514;2023-05-07T22:23:15;95886.44;;;15.64;69.64
20860;BME280;10590;48.154;11.514;2023-05-07T22:28:38;95895.69;;;15.78;69.17
20860;BME280;10590;48.154;11.514;2023-05-07T22:34:00;95899.03;;;15.87;69.21
20860;BME280;10590;48.154;11.514;2023-05-07T22:39:22;95905.25;;;16.04;68.35
20860;BME280;10590;48.154;11.514;2023-05-07T22:44:45;95917.19;;;15.90;68.13
20860;BME280;10590;48.154;11.514;2023-05-07T22:50:07;95906.47;;;15.66;68.67
20860;BME280;10590;48.154;11.514;2023-05-07T22:55:29;95904.69;;;15.70;68.99
20860;BME280;10590;48.154;11.514;2023-05-07T23:00:53;95905.09;;;15.84;67.97
20860;BME280;10590;48.154;11.514;2023-05-07T23:06:15;95914.59;;;15.94;68.02
20860;BME280;10590;48.154;11.514;2023-05-07T23:11:37;95897.59;;;15.78;68.55
20860;BME280;10590;48.154;11.514;2023-05-07T23:17:00;95905.53;;;15.86;68.26
20860;BME280;10590;48.154;11.514;2023-05-07T23:22:22;95901.56;;;15.68;68.66
20860;BME280;10590;48.154;11.514;2023-05-07T23:27:45;95899.53;;;15.65;68.71
20860;BME280;10590;48.154;11.514;2023-05-07T23:33:10;95900.66;;;15.64;68.72
20860;BME280;10590;48.154;11.514;2023-05-07T23:38:32;95900.53;;;15.73;68.20
20860;BME280;10590;48.154;11.514;2023-05-07T23:43:55;95906.25;;;15.71;67.67
20860;BME280;10590;48.154;11.514;2023-05-07T23:49:18;95903.22;;;15.48;67.92
20860;BME280;10590;48.154;11.514;2023-05-07T23:54:40;95909.47;;;15.52;67.92
